createdAt,value
2022-12-22T00:01:34.921Z,2.42
2022-12-22T00:04:20.804Z,2.36
2022-12-22T00:07:06.772Z,2.39
2022-12-22T00:09:52.616Z,2.45
2022-12-22T00:12:39.266Z,2.48
2022-12-22T00:15:34.441Z,2.43
2022-12-22T00:18:20.434Z,2.47
2022-12-22T00:21:06.586Z,2.55
2022-12-22T00:23:52.300Z,2.44
2022-12-22T00:26:38.764Z,2.40
2022-12-22T00:29:24.663Z,2.37
2022-12-22T00:32:10.793Z,2.32
2022-12-22T00:35:00.552Z,2.27
2022-12-22T00:37:48.766Z,2.29
2022-12-22T00:40:36.541Z,2.37
2022-12-22T00:43:22.345Z,2.32
2022-12-22T00:46:09.220Z,2.21
2022-12-22T00:48:55.960Z,2.33
2022-12-22T00:51:41.907Z,2.35
2022-12-22T00:54:28.887Z,2.36
2022-12-22T00:57:14.676Z,2.30
2022-12-22T01:00:00.365Z,2.35
2022-12-22T01:02:46.248Z,2.39
2022-12-22T01:05:32.640Z,2.50
2022-12-22T01:08:19.545Z,2.62
2022-12-22T01:11:05.917Z,2.76
2022-12-22T01:13:51.491Z,2.79
2022-12-22T01:16:38.046Z,2.78
2022-12-22T01:19:24.024Z,2.78
2022-12-22T01:22:10.136Z,2.89
2022-12-22T01:24:56.151Z,2.86
2022-12-22T01:27:41.837Z,2.79
2022-12-22T01:30:29.420Z,2.77
2022-12-22T01:33:15.432Z,2.80
2022-12-22T01:36:01.155Z,2.87
2022-12-22T01:38:47.015Z,3.11
2022-12-22T01:41:34.863Z,3.18
2022-12-22T01:44:20.832Z,3.12
2022-12-22T01:47:06.675Z,3.02
2022-12-22T01:50:01.299Z,3.11
2022-12-22T01:52:51.878Z,3.19
2022-12-22T01:55:42.936Z,3.24
2022-12-22T01:58:36.459Z,3.18
2022-12-22T02:01:22.579Z,3.12
2022-12-22T02:04:08.329Z,3.16
2022-12-22T02:07:00.950Z,3.24
2022-12-22T02:10:03.264Z,3.41
2022-12-22T02:12:58.081Z,3.47
2022-12-22T02:16:16.321Z,3.30
2022-12-22T02:19:12.543Z,3.17
2022-12-22T02:22:15.819Z,3.12
2022-12-22T02:25:08.097Z,3.14
2022-12-22T02:27:55.492Z,3.30
2022-12-22T02:30:41.135Z,3.40
2022-12-22T02:33:27.591Z,3.52
2022-12-22T02:36:47.238Z,3.36
2022-12-22T02:40:03.341Z,3.24
2022-12-22T02:43:14.005Z,3.16
2022-12-22T02:46:16.909Z,3.28
2022-12-22T02:49:14.838Z,3.35
2022-12-22T02:52:05.340Z,3.20
2022-12-22T02:54:51.451Z,3.16
2022-12-22T02:57:37.901Z,3.10
2022-12-22T03:00:24.894Z,3.10
2022-12-22T03:03:10.938Z,3.33
2022-12-22T03:05:56.692Z,3.51
2022-12-22T03:08:42.404Z,3.52
2022-12-22T03:11:27.791Z,3.49
2022-12-22T03:14:13.734Z,3.42
2022-12-22T03:16:59.009Z,3.41
2022-12-22T03:19:44.850Z,3.35
2022-12-22T03:22:30.747Z,3.11
2022-12-22T03:25:16.783Z,2.97
2022-12-22T03:27:43.824Z,3.05
2022-12-22T03:30:11.380Z,3.07
2022-12-22T03:32:38.456Z,3.11
2022-12-22T03:35:05.942Z,3.19
2022-12-22T03:37:33.342Z,3.21
2022-12-22T03:40:00.385Z,3.18
2022-12-22T03:42:45.862Z,3.17
2022-12-22T03:45:31.661Z,3.19
2022-12-22T03:47:58.733Z,3.26
2022-12-22T03:50:26.114Z,3.21
2022-12-22T03:52:53.190Z,3.11
2022-12-22T03:55:20.231Z,3.18
2022-12-22T03:57:47.600Z,3.18
2022-12-22T04:00:15.483Z,3.15
2022-12-22T04:02:42.906Z,3.14
2022-12-22T04:05:10.524Z,3.12
2022-12-22T04:07:37.590Z,3.11
2022-12-22T04:10:24.011Z,3.09
2022-12-22T04:12:54.277Z,3.21
2022-12-22T04:15:27.686Z,3.17
2022-12-22T04:17:54.794Z,3.09
2022-12-22T04:20:24.208Z,2.95
2022-12-22T04:22:51.277Z,2.87
2022-12-22T04:25:18.379Z,2.87
2022-12-22T04:27:45.873Z,2.92
2022-12-22T04:30:13.469Z,2.90
2022-12-22T04:32:40.707Z,2.99
2022-12-22T04:35:08.974Z,3.03
2022-12-22T04:37:36.237Z,3.05
2022-12-22T04:40:04.142Z,2.96
2022-12-22T04:42:31.547Z,2.93
2022-12-22T04:44:58.629Z,2.97
2022-12-22T04:47:25.694Z,2.98
2022-12-22T04:49:55.552Z,2.90
2022-12-22T04:52:23.192Z,3.05
2022-12-22T04:54:50.267Z,3.18
2022-12-22T04:57:17.652Z,3.05
2022-12-22T04:59:44.718Z,2.97
2022-12-22T05:02:12.252Z,2.92
2022-12-22T05:04:39.722Z,3.06
2022-12-22T05:07:07.808Z,3.35
2022-12-22T05:09:34.963Z,3.84
2022-12-22T05:12:22.327Z,4.24
2022-12-22T05:14:49.661Z,4.17
2022-12-22T05:17:17.072Z,4.01
2022-12-22T05:19:44.182Z,3.95
2022-12-22T05:22:11.484Z,3.71
2022-12-22T05:24:38.846Z,3.34
2022-12-22T05:27:05.922Z,3.14
2022-12-22T05:29:33.030Z,3.04
2022-12-22T05:32:00.387Z,3.12
2022-12-22T05:34:27.598Z,3.20
2022-12-22T05:36:54.668Z,3.14
2022-12-22T05:39:22.152Z,2.95
2022-12-22T05:41:49.272Z,3.09
2022-12-22T05:44:16.350Z,3.13
2022-12-22T05:46:43.711Z,3.12
2022-12-22T05:49:10.810Z,3.16
2022-12-22T05:51:37.874Z,2.99
2022-12-22T05:54:05.281Z,2.99
2022-12-22T05:56:32.339Z,3.11
2022-12-22T05:58:59.403Z,2.91
2022-12-22T06:01:26.839Z,2.88
2022-12-22T06:03:59.690Z,3.04
2022-12-22T06:06:27.351Z,3.00
2022-12-22T06:08:54.681Z,3.14
2022-12-22T06:11:21.764Z,3.10
2022-12-22T06:13:51.148Z,3.07
2022-12-22T06:16:18.578Z,3.27
2022-12-22T06:18:45.668Z,3.16
2022-12-22T06:21:12.704Z,3.17
2022-12-22T06:23:40.081Z,3.30
2022-12-22T06:26:07.323Z,3.37
2022-12-22T06:28:34.399Z,3.41
2022-12-22T06:31:01.789Z,3.05
2022-12-22T06:33:28.872Z,3.09
2022-12-22T06:35:58.933Z,3.17
2022-12-22T06:38:27.960Z,3.37
2022-12-22T06:40:55.068Z,3.29
2022-12-22T06:43:22.131Z,3.35
2022-12-22T06:45:49.529Z,3.30
2022-12-22T06:48:16.596Z,3.19
2022-12-22T06:50:43.736Z,3.37
2022-12-22T06:53:11.537Z,3.43
2022-12-22T06:55:38.863Z,3.58
2022-12-22T06:58:06.225Z,3.47
2022-12-22T07:00:33.981Z,3.57
2022-12-22T07:03:01.487Z,3.45
2022-12-22T07:05:30.472Z,3.16
2022-12-22T07:08:02.678Z,3.14
2022-12-22T07:10:51.515Z,3.29
2022-12-22T07:13:19.751Z,3.31
2022-12-22T07:15:52.141Z,3.36
2022-12-22T07:18:24.872Z,3.47
2022-12-22T07:20:53.190Z,3.40
2022-12-22T07:23:20.343Z,3.34
2022-12-22T07:25:47.777Z,3.51
2022-12-22T07:28:20.284Z,3.48
2022-12-22T07:30:50.053Z,3.32
2022-12-22T07:33:17.547Z,3.42
2022-12-22T07:35:44.877Z,3.50
2022-12-22T07:38:12.631Z,3.53
2022-12-22T07:40:42.583Z,3.57
2022-12-22T07:43:10.316Z,3.55
2022-12-22T07:45:38.391Z,3.50
2022-12-22T07:48:25.623Z,3.48
2022-12-22T07:50:56.988Z,3.53
2022-12-22T07:53:24.039Z,3.57
2022-12-22T07:55:51.097Z,3.68
2022-12-22T07:58:18.461Z,3.64
2022-12-22T08:00:45.570Z,3.72
2022-12-22T08:03:13.100Z,3.51
2022-12-22T08:05:40.272Z,3.73
2022-12-22T08:08:07.665Z,3.60
2022-12-22T08:10:35.071Z,3.75
2022-12-22T08:13:02.130Z,3.88
2022-12-22T08:15:29.365Z,3.94
2022-12-22T08:17:56.911Z,3.88
2022-12-22T08:20:24.064Z,3.67
2022-12-22T08:22:51.415Z,3.50
2022-12-22T08:25:18.891Z,3.47
2022-12-22T08:27:52.245Z,3.64
2022-12-22T08:30:19.758Z,3.69
2022-12-22T08:32:49.216Z,3.91
2022-12-22T08:35:16.528Z,4.27
2022-12-22T08:37:45.918Z,4.30
2022-12-22T08:40:18.732Z,4.38
2022-12-22T08:42:47.233Z,4.42
2022-12-22T08:45:14.424Z,4.01
2022-12-22T08:47:41.559Z,3.80
2022-12-22T08:50:09.491Z,4.04
2022-12-22T08:52:36.755Z,3.87
2022-12-22T08:55:04.189Z,3.85
2022-12-22T08:57:31.706Z,3.84
2022-12-22T08:59:58.953Z,3.81
2022-12-22T09:02:26.360Z,3.95
2022-12-22T09:04:53.987Z,4.02
2022-12-22T09:07:21.137Z,4.16
2022-12-22T09:09:48.345Z,3.88
2022-12-22T09:12:15.873Z,4.03
2022-12-22T09:14:43.047Z,4.16
2022-12-22T09:17:10.187Z,4.24
2022-12-22T09:19:37.719Z,4.52
2022-12-22T09:22:05.101Z,4.47
2022-12-22T09:24:32.253Z,4.32
2022-12-22T09:26:59.838Z,4.13
2022-12-22T09:29:27.067Z,3.96
2022-12-22T09:31:54.248Z,4.08
2022-12-22T09:34:21.847Z,4.30
2022-12-22T09:36:49.057Z,4.48
2022-12-22T09:39:16.409Z,4.57
2022-12-22T09:41:57.781Z,4.70
2022-12-22T09:44:24.874Z,4.85
2022-12-22T09:46:57.759Z,4.76
2022-12-22T09:49:25.771Z,4.72
2022-12-22T09:51:58.227Z,4.71
2022-12-22T09:54:26.185Z,4.68
2022-12-22T09:56:53.353Z,4.78
2022-12-22T09:59:21.750Z,4.75
2022-12-22T10:02:30.759Z,4.80
2022-12-22T10:05:12.093Z,4.77
2022-12-22T10:07:41.057Z,4.86
2022-12-22T10:10:24.851Z,4.90
2022-12-22T10:12:55.064Z,5.00
2022-12-22T10:15:23.567Z,5.17
2022-12-22T10:17:52.134Z,5.10
2022-12-22T10:20:21.674Z,5.22
2022-12-22T10:22:51.522Z,5.41
2022-12-22T10:25:52.240Z,5.28
2022-12-22T10:28:22.860Z,5.36
2022-12-22T10:30:50.150Z,5.60
2022-12-22T10:33:18.946Z,5.78
2022-12-22T10:35:54.933Z,5.81
2022-12-22T10:38:54.404Z,5.79
2022-12-22T10:41:23.698Z,5.87
2022-12-22T10:43:56.374Z,5.74
2022-12-22T10:46:44.081Z,5.88
2022-12-22T10:49:22.482Z,5.83
2022-12-22T10:51:55.592Z,5.83
2022-12-22T10:54:34.025Z,5.71
2022-12-22T10:57:06.514Z,5.77
2022-12-22T10:59:34.344Z,5.82
2022-12-22T11:02:20.816Z,5.87
2022-12-22T11:04:52.265Z,5.91
2022-12-22T11:07:20.300Z,5.79
2022-12-22T11:09:47.560Z,5.70
2022-12-22T11:12:17.476Z,5.70
2022-12-22T11:15:03.515Z,5.77
2022-12-22T11:17:55.567Z,5.99
2022-12-22T11:20:41.472Z,6.12
2022-12-22T11:23:20.759Z,6.03
2022-12-22T11:26:01.019Z,5.95
2022-12-22T11:29:09.442Z,5.81
2022-12-22T11:31:56.044Z,5.75
2022-12-22T11:34:50.464Z,5.82
2022-12-22T11:37:36.773Z,5.97
2022-12-22T11:40:16.287Z,5.97
2022-12-22T11:42:57.175Z,5.89
2022-12-22T11:45:46.353Z,5.94
2022-12-22T11:48:40.970Z,6.03
2022-12-22T11:51:13.016Z,6.05
2022-12-22T11:53:51.935Z,6.07
2022-12-22T11:56:21.732Z,5.95
2022-12-22T11:59:20.347Z,5.97
2022-12-22T12:02:18.497Z,5.83
2022-12-22T12:05:11.664Z,5.82
2022-12-22T12:07:42.033Z,5.92
2022-12-22T12:10:29.077Z,6.20
2022-12-22T12:13:05.776Z,6.41
2022-12-22T12:15:38.422Z,6.52
2022-12-22T12:18:08.618Z,6.60
2022-12-22T12:21:00.133Z,6.72
2022-12-22T12:23:45.920Z,7.11
2022-12-22T12:26:23.811Z,7.21
2022-12-22T12:29:24.629Z,6.93
2022-12-22T12:32:18.908Z,6.72
2022-12-22T12:34:49.708Z,6.55
2022-12-22T12:37:33.303Z,6.40
2022-12-22T12:40:24.601Z,6.42
2022-12-22T12:42:52.812Z,6.23
2022-12-22T12:45:41.097Z,6.03
2022-12-22T12:48:21.034Z,5.99
2022-12-22T12:50:49.357Z,5.21
2022-12-22T12:53:18.135Z,4.98
2022-12-22T12:55:47.980Z,4.83
2022-12-22T12:58:35.017Z,4.96
2022-12-22T13:01:04.461Z,5.07
2022-12-22T13:04:01.963Z,4.85
2022-12-22T13:06:49.832Z,5.03
2022-12-22T13:12:48.526Z,5.45
2022-12-22T13:15:38.999Z,5.85
2022-12-22T13:18:29.341Z,5.88
2022-12-22T13:21:51.016Z,5.83
2022-12-22T13:24:23.447Z,5.85
2022-12-22T13:26:44.736Z,5.66
2022-12-22T13:29:28.919Z,5.70
2022-12-22T13:32:00.705Z,5.57
2022-12-22T13:35:29.010Z,5.45
2022-12-22T13:37:47.666Z,5.60
2022-12-22T13:40:19.893Z,5.89
2022-12-22T13:42:56.301Z,5.85
2022-12-22T13:45:32.903Z,5.76
2022-12-22T13:48:01.134Z,5.72
2022-12-22T13:50:32.783Z,5.67
2022-12-22T13:53:01.276Z,5.71
2022-12-22T13:55:31.299Z,5.72
2022-12-22T13:58:24.452Z,5.80
2022-12-22T14:01:11.218Z,5.72
2022-12-22T14:03:59.405Z,5.90
2022-12-22T14:06:40.783Z,5.92
2022-12-22T14:09:12.206Z,5.99
2022-12-22T14:11:44.105Z,5.91
2022-12-22T14:14:38.496Z,5.91
2022-12-22T14:17:19.485Z,5.85
2022-12-22T14:19:49.415Z,5.76
2022-12-22T14:22:21.392Z,5.73
2022-12-22T14:24:56.373Z,5.62
2022-12-22T14:27:33.910Z,5.46
2022-12-22T14:30:03.971Z,5.26
2022-12-22T14:32:43.378Z,5.22
2022-12-22T14:35:23.107Z,5.08
2022-12-22T14:38:19.296Z,5.12
2022-12-22T14:40:51.109Z,5.27
2022-12-22T14:43:26.817Z,5.17
2022-12-22T14:46:05.557Z,4.99
2022-12-22T14:48:46.276Z,4.90
2022-12-22T14:51:20.266Z,4.75
2022-12-22T14:53:50.872Z,4.73
2022-12-22T14:56:18.620Z,4.46
2022-12-22T14:58:47.281Z,4.54
2022-12-22T15:01:19.563Z,4.52
2022-12-22T15:04:15.045Z,4.56
2022-12-22T15:06:44.629Z,4.47
2022-12-22T15:09:15.096Z,4.67
2022-12-22T15:11:47.757Z,4.53
2022-12-22T15:14:17.749Z,4.41
2022-12-22T15:16:45.716Z,4.40
2022-12-22T15:19:15.529Z,4.49
2022-12-22T15:21:42.991Z,4.68
2022-12-22T15:24:15.649Z,4.60
2022-12-22T15:26:43.911Z,4.64
2022-12-22T15:29:11.618Z,4.73
2022-12-22T15:31:39.565Z,4.75
2022-12-22T15:34:14.912Z,4.75
2022-12-22T15:36:42.238Z,4.65
2022-12-22T15:39:14.720Z,4.83
2022-12-22T15:41:42.054Z,4.78
2022-12-22T15:44:09.656Z,4.70
2022-12-22T15:46:38.603Z,4.71
2022-12-22T15:49:10.309Z,4.68
2022-12-22T15:51:37.753Z,4.72
2022-12-22T15:54:04.921Z,4.63
2022-12-22T15:56:33.602Z,4.52
2022-12-22T15:59:01.847Z,4.51
2022-12-22T16:01:29.086Z,4.37
2022-12-22T16:03:56.916Z,4.35
2022-12-22T16:06:24.178Z,4.51
2022-12-22T16:08:52.773Z,4.60
2022-12-22T16:11:20.605Z,4.67
2022-12-22T16:13:49.452Z,4.61
2022-12-22T16:16:17.266Z,4.61
2022-12-22T16:18:44.768Z,4.62
2022-12-22T16:21:17.497Z,4.63
2022-12-22T16:23:46.614Z,4.39
2022-12-22T16:26:19.173Z,4.43
2022-12-22T16:28:47.025Z,4.13
2022-12-22T16:31:20.041Z,4.07
2022-12-22T16:33:50.966Z,4.25
2022-12-22T16:36:18.159Z,4.15
2022-12-22T16:38:47.497Z,4.18
2022-12-22T16:41:25.352Z,4.33
2022-12-22T16:43:53.864Z,4.26
2022-12-22T16:46:22.398Z,4.26
2022-12-22T16:48:54.579Z,4.13
2022-12-22T16:51:25.232Z,4.05
2022-12-22T16:53:52.566Z,4.07
2022-12-22T16:56:26.749Z,4.14
2022-12-22T16:58:54.259Z,4.21
2022-12-22T17:01:43.782Z,4.27
2022-12-22T17:04:19.247Z,4.28
2022-12-22T17:06:47.750Z,4.23
2022-12-22T17:09:18.271Z,4.02
2022-12-22T17:11:46.723Z,4.02
2022-12-22T17:14:34.060Z,4.17
2022-12-22T17:17:01.532Z,4.24
2022-12-22T17:19:28.774Z,4.28
2022-12-22T17:21:58.153Z,4.25
2022-12-22T17:24:28.467Z,4.31
2022-12-22T17:27:05.717Z,4.34
2022-12-22T17:29:35.160Z,4.48
2022-12-22T17:32:02.318Z,4.50
2022-12-22T17:34:29.445Z,4.39
2022-12-22T17:36:58.888Z,4.36
2022-12-22T17:39:26.157Z,4.32
2022-12-22T17:41:57.029Z,4.32
2022-12-22T17:44:26.700Z,4.27
2022-12-22T17:46:54.239Z,4.14
2022-12-22T17:49:22.755Z,4.07
2022-12-22T17:51:50.432Z,4.17
2022-12-22T17:54:35.598Z,4.14
2022-12-22T17:57:06.887Z,4.04
2022-12-22T17:59:34.043Z,4.11
2022-12-22T18:02:01.506Z,4.10
2022-12-22T18:04:29.074Z,4.15
2022-12-22T18:06:56.219Z,4.13
2022-12-22T18:09:26.089Z,3.91
2022-12-22T18:11:53.427Z,3.99
2022-12-22T18:14:22.196Z,4.04
2022-12-22T18:16:49.396Z,3.98
2022-12-22T18:19:16.775Z,3.89
2022-12-22T18:21:44.056Z,3.83
2022-12-22T18:24:17.812Z,3.71
2022-12-22T18:26:46.901Z,3.84
2022-12-22T18:29:18.094Z,3.99
2022-12-22T18:31:45.624Z,3.89
2022-12-22T18:34:12.835Z,4.02
2022-12-22T18:36:42.465Z,3.84
2022-12-22T18:39:17.952Z,3.99
2022-12-22T18:41:45.165Z,3.95
2022-12-22T18:44:16.931Z,3.90
2022-12-22T18:46:44.156Z,3.99
2022-12-22T18:49:11.279Z,4.11
2022-12-22T18:51:38.891Z,4.13
2022-12-22T18:54:31.187Z,4.33
2022-12-22T18:56:58.788Z,4.59
2022-12-22T18:59:31.240Z,4.30
2022-12-22T19:02:10.256Z,4.20
2022-12-22T19:04:37.499Z,4.13
2022-12-22T19:07:04.893Z,4.25
2022-12-22T19:09:32.060Z,4.19
2022-12-22T19:11:59.287Z,4.22
2022-12-22T19:14:26.821Z,4.21
2022-12-22T19:16:54.601Z,4.18
2022-12-22T19:19:21.818Z,4.07
2022-12-22T19:21:50.473Z,4.09
2022-12-22T19:24:17.588Z,4.15
2022-12-22T19:26:44.720Z,4.09
2022-12-22T19:29:13.795Z,4.02
2022-12-22T19:31:41.396Z,3.98
2022-12-22T19:34:18.516Z,3.94
2022-12-22T19:36:45.963Z,3.92
2022-12-22T19:39:13.068Z,3.96
2022-12-22T19:41:46.348Z,3.90
2022-12-22T19:44:26.354Z,3.97
2022-12-22T19:46:55.099Z,4.03
2022-12-22T19:49:24.893Z,4.26
2022-12-22T19:51:51.935Z,4.42
2022-12-22T19:54:22.286Z,4.56
2022-12-22T19:56:52.574Z,4.55
2022-12-22T19:59:35.587Z,4.59
2022-12-22T20:02:30.219Z,4.91
2022-12-22T20:04:58.761Z,4.86
2022-12-22T20:07:27.560Z,4.80
2022-12-22T20:09:54.608Z,4.67
2022-12-22T20:12:29.728Z,4.70
2022-12-22T20:15:00.318Z,4.73
2022-12-22T20:17:27.956Z,4.77
2022-12-22T20:19:55.036Z,4.86
2022-12-22T20:22:22.388Z,4.96
2022-12-22T20:24:50.155Z,4.89
2022-12-22T20:27:33.560Z,4.85
2022-12-22T20:30:00.985Z,4.86
2022-12-22T20:32:28.724Z,5.15
2022-12-22T20:34:56.335Z,5.56
2022-12-22T20:37:28.491Z,5.61
2022-12-22T20:39:55.639Z,5.67
2022-12-22T20:42:24.051Z,5.77
2022-12-22T20:45:02.668Z,5.82
2022-12-22T20:47:33.417Z,5.87
2022-12-22T20:50:01.079Z,5.70
2022-12-22T20:52:28.194Z,5.58
2022-12-22T20:54:55.346Z,5.61
2022-12-22T20:57:23.283Z,5.17
2022-12-22T20:59:56.152Z,4.82
2022-12-22T21:02:28.202Z,4.66
2022-12-22T21:04:56.025Z,4.67
2022-12-22T21:07:23.307Z,4.75
2022-12-22T21:09:50.754Z,4.77
2022-12-22T21:12:17.857Z,5.09
2022-12-22T21:14:45.058Z,5.14
2022-12-22T21:17:16.634Z,5.16
2022-12-22T21:19:43.907Z,5.07
2022-12-22T21:22:11.299Z,5.08
2022-12-22T21:24:38.787Z,5.17
2022-12-22T21:27:06.129Z,5.19
2022-12-22T21:29:33.309Z,5.24
2022-12-22T21:32:00.705Z,5.16
2022-12-22T21:34:27.781Z,5.23
2022-12-22T21:37:00.240Z,5.17
2022-12-22T21:39:31.765Z,5.06
2022-12-22T21:42:01.938Z,5.02
2022-12-22T21:44:31.105Z,5.03
2022-12-22T21:46:58.515Z,5.07
2022-12-22T21:49:28.321Z,5.12
2022-12-22T21:51:56.002Z,5.00
2022-12-22T21:54:24.443Z,5.05
2022-12-22T21:56:52.593Z,5.15
2022-12-22T21:59:20.292Z,5.08
2022-12-22T22:01:48.014Z,5.05
2022-12-22T22:04:15.514Z,5.33
2022-12-22T22:06:42.720Z,5.15
2022-12-22T22:09:09.861Z,5.06
2022-12-22T22:11:57.217Z,5.12
2022-12-22T22:14:25.578Z,5.16
2022-12-22T22:16:53.040Z,5.22
2022-12-22T22:19:20.190Z,5.29
2022-12-22T22:21:47.625Z,5.30
2022-12-22T22:24:15.043Z,5.31
2022-12-22T22:26:45.310Z,5.32
2022-12-22T22:29:12.481Z,5.35
2022-12-22T22:31:40.770Z,5.37
2022-12-22T22:34:08.065Z,5.31
2022-12-22T22:36:35.243Z,5.28
2022-12-22T22:39:02.798Z,5.18
2022-12-22T22:41:33.160Z,5.17
2022-12-22T22:44:04.285Z,5.24
2022-12-22T22:46:31.501Z,5.21
2022-12-22T22:48:58.838Z,5.27
2022-12-22T22:51:26.470Z,5.35
2022-12-22T22:53:53.645Z,5.30
2022-12-22T22:56:21.100Z,5.28
2022-12-22T22:58:48.582Z,5.32
2022-12-22T23:01:15.837Z,5.36
2022-12-22T23:03:43.080Z,5.35
2022-12-22T23:06:12.644Z,5.36
2022-12-22T23:08:39.844Z,5.31
2022-12-22T23:11:13.132Z,5.32
2022-12-22T23:13:41.038Z,5.29
2022-12-22T23:16:08.784Z,5.34
2022-12-22T23:18:36.331Z,5.41
2022-12-22T23:21:05.607Z,5.48
2022-12-22T23:23:33.695Z,5.44
2022-12-22T23:26:01.255Z,5.36
2022-12-22T23:28:28.698Z,5.32
2022-12-22T23:30:56.248Z,5.35
2022-12-22T23:33:23.476Z,5.35
2022-12-22T23:35:51.362Z,5.25
2022-12-22T23:38:20.907Z,5.09
2022-12-22T23:40:53.473Z,5.05
2022-12-22T23:43:22.272Z,5.04
2022-12-22T23:45:49.430Z,5.06
2022-12-22T23:48:16.764Z,4.95
2022-12-22T23:50:47.990Z,5.02
2022-12-22T23:53:15.787Z,5.05
2022-12-22T23:55:46.986Z,5.04
2022-12-22T23:58:14.794Z,5.04
